Time;durP1;ratioP1;P1;durP2;ratioP2;P2;SDS_P1;SDS_P2;PMS_P1;PMS_P2;Temp;Humidity;BMP_temperature;BMP_pressure;BME280_temperature;BME280_humidity;BME280_pressure;Samples;Min_cycle;Max_cycle;Signal;HPM_P1;HPM_P2
2021/01/29 00:00:00;;;;;;;2.50;2.13;;;;;;;0.94;61.96;99927.81;689564;28;22474;-62
2021/01/29 00:00:24;;;;;;;2.80;2.40;;;;;;;0.93;62.05;99923.44;687514;28;76689;-61
2021/01/29 00:00:45;;;;;;;2.80;2.60;;;;;;;0.92;62.03;99921.75;687982;28;69527;-61
2021/01/29 00:01:07;;;;;;;2.65;2.45;;;;;;;0.94;61.99;99926.94;689428;28;22462;-61
2021/01/29 00:01:30;;;;;;;2.50;2.30;;;;;;;0.88;62.07;99925.69;690231;28;921;-62
2021/01/29 00:01:53;;;;;;;2.85;2.33;;;;;;;0.92;62.17;99919.09;688923;28;46350;-61
2021/01/29 00:02:15;;;;;;;3.17;2.50;;;;;;;0.93;62.20;99928.75;687812;28;67614;-62
2021/01/29 00:02:41;;;;;;;3.35;2.30;;;;;;;0.93;62.12;99926.09;688132;28;61595;-60
2021/01/29 00:03:06;;;;;;;3.40;2.75;;;;;;;0.92;62.44;99927.06;689671;28;19638;-61
2021/01/29 00:03:28;;;;;;;3.33;2.70;;;;;;;0.87;62.13;99916.00;687101;28;85415;-61
2021/01/29 00:03:49;;;;;;;3.25;2.60;;;;;;;0.92;62.01;99931.56;688793;28;45768;-62
2021/01/29 00:04:10;;;;;;;2.92;2.50;;;;;;;0.90;61.94;99929.03;689620;28;22415;-61
2021/01/29 00:04:32;;;;;;;3.38;2.40;;;;;;;0.91;62.16;99933.38;689557;28;23648;-61
2021/01/29 00:04:53;;;;;;;3.95;2.47;;;;;;;0.90;62.17;99934.34;688593;28;46406;-62
2021/01/29 00:05:14;;;;;;;2.75;2.15;;;;;;;0.89;62.18;99924.69;689143;28;25092;-60
2021/01/29 00:05:39;;;;;;;2.58;2.38;;;;;;;0.90;62.20;99929.88;689903;28;1110;-61
2021/01/29 00:06:03;;;;;;;2.72;2.30;;;;;;;0.88;62.05;99931.81;686454;28;69145;-62
2021/01/29 00:06:25;;;;;;;3.40;2.60;;;;;;;0.87;62.22;99935.44;685581;28;114836;-62
2021/01/29 00:06:46;;;;;;;4.38;2.55;;;;;;;0.88;62.20;99923.03;689263;28;22273;-60
2021/01/29 00:07:07;;;;;;;2.85;2.65;;;;;;;0.89;62.15;99922.03;689669;28;18580;-62
2021/01/29 00:07:28;;;;;;;2.78;2.58;;;;;;;0.88;62.11;99923.84;688653;28;44413;-62
2021/01/29 00:07:50;;;;;;;2.72;2.50;;;;;;;0.84;62.10;99911.78;689320;28;23539;-62
2021/01/29 00:08:12;;;;;;;2.90;2.60;;;;;;;0.87;62.24;99924.81;688491;28;47535;-62
2021/01/29 00:08:33;;;;;;;3.65;3.00;;;;;;;0.85;61.97;99920.63;689685;28;20303;-61
2021/01/29 00:08:55;;;;;;;2.58;2.38;;;;;;;0.85;62.03;99918.81;689968;28;6303;-62
2021/01/29 00:09:18;;;;;;;3.95;2.80;;;;;;;0.84;61.94;99921.59;689381;28;46333;-62
2021/01/29 00:09:40;;;;;;;4.93;2.90;;;;;;;0.84;61.79;99917.09;689477;28;16074;-62
2021/01/29 00:10:01;;;;;;;5.80;2.72;;;;;;;0.85;62.23;99915.31;689602;28;22403;-62
2021/01/29 00:10:22;;;;;;;5.95;3.15;;;;;;;0.85;62.22;99915.31;689172;28;23519;-61
2021/01/29 00:10:44;;;;;;;3.55;2.88;;;;;;;0.85;62.31;99915.31;686748;28;23520;-62
2021/01/29 00:11:06;;;;;;;3.25;3.00;;;;;;;0.85;62.20;99913.50;684744;28;46396;-62
2021/01/29 00:11:27;;;;;;;3.20;2.92;;;;;;;0.84;62.38;99914.44;685391;28;33012;-62
2021/01/29 00:11:48;;;;;;;2.83;2.60;;;;;;;0.84;62.36;99916.28;688453;28;22342;-62
2021/01/29 00:12:11;;;;;;;2.72;2.53;;;;;;;0.84;62.34;99921.59;688107;28;23079;-62
2021/01/29 00:12:32;;;;;;;2.83;2.60;;;;;;;0.83;62.32;99917.25;687362;28;67507;-62
2021/01/29 00:12:53;;;;;;;3.63;2.85;;;;;;;0.82;62.22;99924.38;690837;28;22384;-62
2021/01/29 00:13:15;;;;;;;3.00;2.80;;;;;;;0.82;62.28;99921.72;689542;28;22555;-62
2021/01/29 00:13:36;;;;;;;2.65;2.45;;;;;;;0.83;62.49;99922.56;688641;28;44329;-62
2021/01/29 00:13:58;;;;;;;3.25;2.70;;;;;;;0.83;62.58;99922.56;689662;28;23531;-62
2021/01/29 00:14:19;;;;;;;4.83;2.80;;;;;;;0.84;62.40;99930.41;689628;28;22448;-62
2021/01/29 00:14:40;;;;;;;3.80;2.97;;;;;;;0.84;62.52;99929.56;688187;28;45178;-62
2021/01/29 00:15:01;;;;;;;3.55;2.70;;;;;;;0.83;62.72;99926.09;689647;28;23531;-62
2021/01/29 00:15:23;;;;;;;3.10;2.70;;;;;;;0.85;62.72;99933.91;689563;28;23410;-64
2021/01/29 00:15:44;;;;;;;3.20;2.88;;;;;;;0.85;62.72;99933.91;688877;28;44410;-62
2021/01/29 00:16:06;;;;;;;3.13;2.90;;;;;;;0.84;62.81;99929.56;689925;28;22390;-62
2021/01/29 00:16:27;;;;;;;2.72;2.53;;;;;;;0.85;62.82;99932.09;688528;28;44446;-62
2021/01/29 00:16:48;;;;;;;3.60;2.80;;;;;;;0.86;62.68;99932.94;689657;28;21544;-62
2021/01/29 00:17:10;;;;;;;4.30;2.80;;;;;;;0.87;62.87;99935.44;689464;28;22381;-62
2021/01/29 00:17:31;;;;;;;3.38;2.70;;;;;;;0.88;62.75;99936.31;688362;28;45164;-62
2021/01/29 00:17:52;;;;;;;2.72;2.53;;;;;;;0.86;62.78;99935.59;689820;28;21523;-62
2021/01/29 00:18:13;;;;;;;2.63;2.40;;;;;;;0.87;62.73;99942.59;689809;28;23475;-61
2021/01/29 00:18:35;;;;;;;4.45;2.60;;;;;;;0.87;62.68;99935.44;689877;28;18393;-62
2021/01/29 00:18:57;;;;;;;3.53;2.33;;;;;;;0.87;62.87;99939.94;687975;28;67320;-62
2021/01/29 00:19:18;;;;;;;2.60;2.40;;;;;;;0.88;62.87;99939.81;689485;28;22403;-60
2021/01/29 00:19:39;;;;;;;2.65;2.33;;;;;;;0.89;62.96;99932.66;689473;28;22478;-61
2021/01/29 00:20:00;;;;;;;2.70;2.50;;;;;;;0.89;62.87;99938.84;689533;28;23486;-61
2021/01/29 00:20:25;;;;;;;3.13;2.47;;;;;;;0.90;62.87;99932.53;689169;28;22411;-61
2021/01/29 00:20:47;;;;;;;3.78;2.55;;;;;;;0.90;62.93;99940.50;686350;28;113421;-62
2021/01/29 00:21:08;;;;;;;3.65;2.45;;;;;;;0.87;62.73;99939.94;688579;28;45171;-62
2021/01/29 00:21:29;;;;;;;3.00;2.67;;;;;;;0.89;62.86;99932.66;689318;28;23456;-62
2021/01/29 00:21:51;;;;;;;2.70;2.50;;;;;;;0.89;62.71;99943.28;689778;28;21544;-61
2021/01/29 00:22:12;;;;;;;2.67;2.40;;;;;;;0.89;62.95;99938.84;688742;28;46361;-62
2021/01/29 00:22:33;;;;;;;2.45;2.20;;;;;;;0.90;62.83;99942.31;689355;28;22410;-62
2021/01/29 00:22:54;;;;;;;2.30;2.10;;;;;;;0.90;62.94;99943.16;689477;28;22416;-61
2021/01/29 00:23:17;;;;;;;4.13;2.28;;;;;;;0.90;62.80;99943.16;688429;28;46419;-62
2021/01/29 00:23:38;;;;;;;2.40;2.20;;;;;;;0.91;62.85;99944.03;689025;28;37141;-62
2021/01/29 00:23:59;;;;;;;2.47;2.30;;;;;;;0.92;62.78;99945.69;689863;28;22376;-61
2021/01/29 00:24:20;;;;;;;2.72;2.45;;;;;;;0.90;62.81;99943.16;689850;28;23111;-62
2021/01/29 00:24:41;;;;;;;3.40;2.30;;;;;;;0.93;62.65;99946.56;689589;28;23493;-62
2021/01/29 00:25:04;;;;;;;3.83;2.20;;;;;;;0.92;62.97;99947.50;688829;28;46353;-62
2021/01/29 00:25:28;;;;;;;2.20;2.10;;;;;;;0.92;62.78;99948.34;687918;28;69457;-61
2021/01/29 00:25:51;;;;;;;2.55;2.10;;;;;;;0.92;62.76;99953.66;687947;28;69439;-62
2021/01/29 00:26:13;;;;;;;2.67;2.10;;;;;;;0.93;62.61;99952.69;687954;28;69421;-62
2021/01/29 00:26:34;;;;;;;2.45;2.10;;;;;;;0.93;62.63;99949.22;688771;28;44395;-62
2021/01/29 00:26:55;;;;;;;2.47;2.00;;;;;;;0.92;62.44;99948.34;689654;28;22410;-62
2021/01/29 00:27:17;;;;;;;2.45;2.20;;;;;;;0.92;62.50;99950.16;689695;28;23516;-62
2021/01/29 00:27:38;;;;;;;2.60;2.40;;;;;;;0.90;62.62;99950.31;687612;28;67255;-61
2021/01/29 00:28:00;;;;;;;2.58;2.38;;;;;;;0.89;62.65;99953.94;689815;28;21527;-61
2021/01/29 00:28:23;;;;;;;3.58;2.40;;;;;;;0.93;62.58;99951.88;689097;28;22368;-61
2021/01/29 00:28:44;;;;;;;4.25;2.50;;;;;;;0.93;62.64;99954.53;687531;28;68791;-61
2021/01/29 00:29:05;;;;;;;2.60;2.40;;;;;;;0.93;62.59;99951.88;689293;28;23433;-61
2021/01/29 00:29:26;;;;;;;2.42;2.22;;;;;;;0.95;62.68;99949.91;689987;28;15026;-62
2021/01/29 00:29:48;;;;;;;2.67;2.20;;;;;;;0.95;62.79;99949.91;688695;28;46573;-62
2021/01/29 00:30:13;;;;;;;3.22;2.40;;;;;;;0.94;62.74;99949.06;689797;28;4372;-62
2021/01/29 00:30:35;;;;;;;3.72;2.30;;;;;;;0.90;62.69;99948.47;686458;28;93137;-62
2021/01/29 00:30:56;;;;;;;3.58;2.50;;;;;;;0.91;62.62;99949.34;688321;28;45314;-61
2021/01/29 00:31:18;;;;;;;4.03;2.60;;;;;;;0.92;62.52;99950.16;689483;28;33938;-62
2021/01/29 00:31:39;;;;;;;4.07;2.70;;;;;;;0.92;62.66;99944.84;688639;28;39369;-60
2021/01/29 00:32:00;;;;;;;4.70;2.60;;;;;;;0.91;62.57;99949.34;689468;28;24578;-62
2021/01/29 00:32:21;;;;;;;3.40;2.60;;;;;;;0.91;62.50;99952.00;689470;28;23325;-61
2021/01/29 00:32:44;;;;;;;3.05;2.67;;;;;;;0.88;62.50;99950.44;689726;28;10767;-61
2021/01/29 00:33:07;;;;;;;3.72;3.08;;;;;;;0.90;62.59;99950.31;688815;28;46378;-62
2021/01/29 00:33:28;;;;;;;3.55;2.90;;;;;;;0.90;62.71;99951.13;687970;28;67066;-62
2021/01/29 00:33:49;;;;;;;3.83;2.90;;;;;;;0.90;62.62;99952.97;688710;28;44486;-62
2021/01/29 00:34:11;;;;;;;4.53;2.70;;;;;;;0.89;62.48;99948.59;690531;28;956;-61
2021/01/29 00:34:32;;;;;;;4.78;2.90;;;;;;;0.87;62.60;99948.75;689665;28;23541;-62
2021/01/29 00:34:53;;;;;;;4.07;3.00;;;;;;;0.87;62.55;99946.09;688933;28;46343;-62
2021/01/29 00:35:18;;;;;;;2.63;2.42;;;;;;;0.82;62.36;99940.34;690131;28;1702;-62
2021/01/29 00:35:40;;;;;;;2.55;2.45;;;;;;;0.85;62.58;99945.38;687514;28;69434;-62
2021/01/29 00:36:02;;;;;;;2.67;2.28;;;;;;;0.84;62.50;99949.00;688717;28;46295;-62
2021/01/29 00:36:23;;;;;;;4.90;2.80;;;;;;;0.85;62.56;99947.22;689637;28;23476;-62
2021/01/29 00:36:44;;;;;;;2.92;2.65;;;;;;;0.85;62.58;99941.91;689770;28;21560;-62
2021/01/29 00:37:05;;;;;;;2.70;2.42;;;;;;;0.84;62.67;99940.19;688855;28;46402;-62
2021/01/29 00:37:27;;;;;;;3.75;2.67;;;;;;;0.83;62.59;99931.41;689752;28;23441;-62
2021/01/29 00:37:48;;;;;;;4.20;2.70;;;;;;;0.83;62.65;99938.50;689677;28;22416;-61
2021/01/29 00:38:09;;;;;;;3.10;2.80;;;;;;;0.83;62.72;99930.53;688683;28;44200;-62
2021/01/29 00:38:31;;;;;;;3.72;2.83;;;;;;;0.82;62.69;99934.19;689406;28;22512;-62
2021/01/29 00:38:52;;;;;;;3.80;2.80;;;;;;;0.84;62.72;99940.19;688644;28;46396;-61
2021/01/29 00:39:13;;;;;;;2.92;2.63;;;;;;;0.82;62.80;99932.38;690124;28;10324;-62
2021/01/29 00:39:34;;;;;;;2.88;2.42;;;;;;;0.82;62.65;99931.53;689689;28;22416;-62
2021/01/29 00:39:56;;;;;;;2.92;2.25;;;;;;;0.82;62.70;99932.38;689793;28;21359;-61
2021/01/29 00:40:18;;;;;;;3.53;2.22;;;;;;;0.81;62.83;99921.88;688791;28;11245;-62
2021/01/29 00:40:39;;;;;;;2.55;2.35;;;;;;;0.81;62.78;99927.19;687511;28;69637;-62
2021/01/29 00:41:00;;;;;;;3.08;2.30;;;;;;;0.80;62.76;99922.81;689116;28;21377;-62
2021/01/29 00:41:23;;;;;;;2.78;2.58;;;;;;;0.80;62.76;99926.34;688576;28;22391;-62
2021/01/29 00:41:45;;;;;;;3.47;2.88;;;;;;;0.77;62.80;99923.97;687860;28;70352;-62
2021/01/29 00:42:06;;;;;;;3.10;2.83;;;;;;;0.79;62.77;99929.97;689481;28;46402;-62
2021/01/29 00:42:28;;;;;;;3.13;2.63;;;;;;;0.76;62.80;99924.91;692416;28;17608;-62
2021/01/29 00:42:50;;;;;;;3.30;2.72;;;;;;;0.80;62.88;99926.34;691161;28;43730;-62
2021/01/29 00:43:12;;;;;;;2.85;2.50;;;;;;;0.78;62.82;99922.13;689652;28;34586;-62
2021/01/29 00:43:33;;;;;;;2.33;2.10;;;;;;;0.79;62.83;99921.16;687917;28;46355;-64
2021/01/29 00:43:54;;;;;;;3.97;2.13;;;;;;;0.79;62.72;99923.81;688511;28;22509;-62
2021/01/29 00:44:16;;;;;;;3.35;2.28;;;;;;;0.80;62.86;99922.81;689810;28;7657;-62
2021/01/29 00:44:37;;;;;;;3.38;2.50;;;;;;;0.79;62.96;99926.47;686145;28;23282;-61
2021/01/29 00:44:58;;;;;;;3.15;2.58;;;;;;;0.79;63.00;99929.97;685661;28;45260;-62
2021/01/29 00:45:22;;;;;;;2.88;2.53;;;;;;;0.81;63.00;99929.84;684415;28;22392;-61
2021/01/29 00:45:44;;;;;;;2.80;2.60;;;;;;;0.81;62.88;99924.53;681318;28;92436;-62
2021/01/29 00:46:05;;;;;;;5.30;3.50;;;;;;;0.81;62.84;99921.88;682783;28;46395;-62
2021/01/29 00:46:26;;;;;;;4.30;3.40;;;;;;;0.80;63.00;99929.00;685613;28;6018;-62
2021/01/29 00:46:49;;;;;;;4.88;3.10;;;;;;;0.80;62.81;99926.34;682279;28;67863;-62
2021/01/29 00:47:10;;;;;;;4.50;3.08;;;;;;;0.77;62.96;99917.78;684937;28;23433;-61
2021/01/29 00:47:32;;;;;;;3.90;3.55;;;;;;;0.81;62.69;99921.88;685827;28;46374;-62
2021/01/29 00:47:53;;;;;;;7.13;5.47;;;;;;;0.81;62.79;99924.53;689560;28;23069;-62
2021/01/29 00:48:15;;;;;;;8.15;5.07;;;;;;;0.81;62.68;99925.34;686405;28;23465;-61
2021/01/29 00:48:36;;;;;;;7.88;4.13;;;;;;;0.81;62.53;99925.34;683195;28;46406;-62
2021/01/29 00:48:58;;;;;;;6.78;4.18;;;;;;;0.80;62.62;99922.81;684855;28;7701;-62
2021/01/29 00:49:19;;;;;;;4.97;4.07;;;;;;;0.73;62.72;99917.22;683660;28;46634;-62
2021/01/29 00:49:41;;;;;;;4.65;3.75;;;;;;;0.79;62.70;99926.47;682576;28;11239;-62
2021/01/29 00:50:04;;;;;;;4.80;3.75;;;;;;;0.78;62.75;99922.97;680992;28;46427;-62
2021/01/29 00:50:26;;;;;;;8.82;4.88;;;;;;;0.78;62.83;99914.97;681098;28;92327;-60
2021/01/29 00:50:48;;;;;;;8.23;4.97;;;;;;;0.76;62.68;99919.59;684141;28;44339;-62
2021/01/29 00:51:09;;;;;;;6.47;4.95;;;;;;;0.77;62.67;99917.78;686064;28;45736;-62
2021/01/29 00:51:30;;;;;;;7.85;5.50;;;;;;;0.76;62.80;99919.59;684608;28;23441;-62
2021/01/29 00:51:51;;;;;;;6.85;5.60;;;;;;;0.76;62.78;99919.59;686988;28;22407;-62
2021/01/29 00:52:12;;;;;;;6.40;4.75;;;;;;;0.75;62.75;99917.06;686584;28;12899;-61
2021/01/29 00:52:34;;;;;;;5.38;4.30;;;;;;;0.76;62.83;99919.59;682672;28;34434;-62
2021/01/29 00:52:55;;;;;;;4.35;3.63;;;;;;;0.75;62.75;99919.75;683936;28;21541;-61
2021/01/29 00:53:17;;;;;;;4.38;3.50;;;;;;;0.73;62.66;99911.91;681428;28;33680;-61
2021/01/29 00:53:40;;;;;;;6.00;3.83;;;;;;;0.73;62.76;99916.38;682661;28;45659;-62
2021/01/29 00:54:08;;;;;;;5.63;3.90;;;;;;;0.73;62.76;99924.34;678646;28;138228;-61
2021/01/29 00:54:33;;;;;;;5.85;3.97;;;;;;;0.73;63.03;99922.53;680745;28;92253;-62
2021/01/29 00:54:54;;;;;;;5.00;3.90;;;;;;;0.73;62.98;99924.34;683287;28;44356;-62
2021/01/29 00:55:24;;;;;;;9.10;4.50;;;;;;;0.70;62.99;99928.13;685463;28;60347;-61
2021/01/29 00:55:50;;;;;;;4.75;3.67;;;;;;;0.70;62.92;99920.97;679722;28;137859;-61
2021/01/29 00:56:19;;;;;;;3.63;3.33;;;;;;;0.71;63.06;99921.84;680460;28;137775;-62
2021/01/29 00:56:56;;;;;;;7.10;4.05;;;;;;;0.72;63.27;99926.16;682346;28;135804;-62
2021/01/29 00:57:17;;;;;;;6.03;3.95;;;;;;;0.74;63.35;99923.34;683117;28;44342;-62
2021/01/29 00:57:54;;;;;;;4.00;3.60;;;;;;;0.76;63.52;99924.09;679852;28;137917;-60
2021/01/29 00:58:31;;;;;;;4.45;3.75;;;;;;;0.79;63.10;99923.81;682789;28;137742;-61
2021/01/29 00:59:12;;;;;;;4.70;4.30;;;;;;;0.78;63.37;99922.97;677070;29;137523;-61
2021/01/29 00:59:57;;;;;;;5.97;4.97;;;;;;;0.79;63.47;99926.47;676604;29;136918;-62
2021/01/29 01:00:27;;;;;;;4.60;4.20;;;;;;;0.79;63.44;99918.50;681650;28;137996;-60
2021/01/29 01:00:54;;;;;;;5.53;4.00;;;;;;;0.79;63.47;99926.47;682066;28;138153;-62
2021/01/29 01:01:21;;;;;;;6.32;4.15;;;;;;;0.80;63.41;99923.69;682188;28;138082;-61
2021/01/29 01:01:47;;;;;;;6.45;3.90;;;;;;;0.81;63.45;99925.34;679784;28;161105;-61
2021/01/29 01:02:10;;;;;;;6.63;3.90;;;;;;;0.83;63.49;99938.50;683124;28;43001;-62
2021/01/29 01:02:31;;;;;;;5.85;3.90;;;;;;;0.84;63.54;99934.88;685759;28;23563;-62
2021/01/29 01:02:52;;;;;;;5.63;4.03;;;;;;;0.84;63.34;99935.72;685739;28;46656;-62
2021/01/29 01:03:14;;;;;;;3.92;3.38;;;;;;;0.84;63.47;99934.88;685147;28;46240;-61
2021/01/29 01:03:36;;;;;;;4.85;3.30;;;;;;;0.84;63.41;99933.06;684494;28;22388;-62
2021/01/29 01:03:57;;;;;;;5.32;3.00;;;;;;;0.85;63.32;99931.25;687500;28;21537;-61
2021/01/29 01:04:20;;;;;;;4.15;2.90;;;;;;;0.85;63.40;99929.44;687570;28;69036;-62
2021/01/29 01:04:41;;;;;;;3.83;2.88;;;;;;;0.85;63.22;99928.59;685754;28;45302;-61
2021/01/29 01:05:04;;;;;;;2.83;2.63;;;;;;;0.86;62.94;99932.94;686220;28;21542;-62
2021/01/29 01:05:26;;;;;;;3.10;2.80;;;;;;;0.82;63.41;99924.38;685616;28;44380;-62
2021/01/29 01:05:48;;;;;;;3.28;2.97;;;;;;;0.84;63.48;99922.44;685070;28;67420;-62
2021/01/29 01:06:26;;;;;;;5.00;2.90;;;;;;;0.82;63.38;99926.22;685314;28;60130;-60
2021/01/29 01:07:11;;;;;;;4.20;3.17;;;;;;;0.85;63.36;99921.47;690058;28;62202;-61
2021/01/29 01:07:39;;;;;;;6.22;3.35;;;;;;;0.86;63.28;99915.19;688114;28;138358;-61
2021/01/29 01:08:19;;;;;;;3.92;2.85;;;;;;;0.85;63.06;99917.97;685804;28;138159;-62
2021/01/29 01:08:46;;;;;;;4.35;2.78;;;;;;;0.85;63.17;99915.31;685406;28;137649;-62
2021/01/29 01:09:23;;;;;;;3.45;2.88;;;;;;;0.86;63.18;99912.53;685035;28;131667;-61
2021/01/29 01:09:45;;;;;;;3.70;2.70;;;;;;;0.87;63.08;99916.00;689288;28;22403;-62
2021/01/29 01:10:10;;;;;;;4.05;2.63;;;;;;;0.85;63.22;99905.50;683589;28;115946;-62
2021/01/29 01:11:01;;;;;;;2.88;2.60;;;;;;;0.86;63.00;99919.63;679641;28;149816;-61
2021/01/29 01:11:40;;;;;;;3.67;2.80;;;;;;;0.84;63.05;99914.44;681113;28;156510;-62
2021/01/29 01:12:24;;;;;;;3.60;2.35;;;;;;;0.84;63.17;99917.09;684407;28;138575;-61
2021/01/29 01:13:01;;;;;;;4.88;2.50;;;;;;;0.83;63.23;99912.78;683880;28;130733;-62
2021/01/29 01:13:36;;;;;;;2.67;2.47;;;;;;;0.81;62.88;99906.75;685695;28;136280;-59
2021/01/29 01:14:17;;;;;;;4.20;2.60;;;;;;;0.81;63.12;99908.56;686853;28;136054;-62
2021/01/29 01:14:38;;;;;;;3.70;2.60;;;;;;;0.79;63.14;99910.53;689355;28;22391;-61
2021/01/29 01:15:24;;;;;;;3.92;2.80;;;;;;;0.76;63.14;99911.63;680967;28;160587;-61
2021/01/29 01:15:53;;;;;;;4.43;2.97;;;;;;;0.75;63.46;99904.63;685272;28;138673;-62
2021/01/29 01:16:15;;;;;;;3.92;2.95;;;;;;;0.76;63.46;99910.81;689520;28;23459;-59
2021/01/29 01:16:38;;;;;;;2.63;2.42;;;;;;;0.75;63.32;99917.91;684804;28;69410;-61
2021/01/29 01:17:06;;;;;;;2.50;2.30;;;;;;;0.75;63.77;99907.28;682123;28;137913;-62
2021/01/29 01:17:48;;;;;;;2.70;2.15;;;;;;;0.75;63.55;99912.59;685233;28;124434;-61
2021/01/29 01:18:17;;;;;;;2.50;2.30;;;;;;;0.74;63.78;99910.06;684751;28;138551;-62
2021/01/29 01:19:00;;;;;;;3.20;2.35;;;;;;;0.76;63.83;99918.78;681273;28;160702;-62
2021/01/29 01:19:36;;;;;;;2.83;2.25;;;;;;;0.77;63.77;99915.97;684993;28;61058;-61
2021/01/29 01:20:00;;;;;;;2.42;2.22;;;;;;;0.79;63.64;99922.00;683455;28;115327;-61
2021/01/29 01:20:23;;;;;;;2.70;2.28;;;;;;;0.79;63.57;99926.47;689486;28;23517;-62
2021/01/29 01:20:45;;;;;;;4.05;2.20;;;;;;;0.77;63.49;99918.63;684602;28;69435;-62
2021/01/29 01:21:07;;;;;;;2.45;2.22;;;;;;;0.78;63.36;99917.66;685055;28;46361;-62
2021/01/29 01:21:28;;;;;;;3.15;2.35;;;;;;;0.78;63.55;99922.97;682456;28;46339;-62
2021/01/29 01:22:10;;;;;;;3.35;2.53;;;;;;;0.78;63.62;99920.31;679959;28;138661;-62
2021/01/29 01:22:41;;;;;;;3.42;2.30;;;;;;;0.77;63.56;99917.78;679270;28;138134;-61
2021/01/29 01:23:09;;;;;;;3.33;2.53;;;;;;;0.75;63.50;99922.41;678602;28;159312;-62
2021/01/29 01:23:35;;;;;;;2.33;1.90;;;;;;;0.73;63.58;99917.22;679550;28;136663;-61
2021/01/29 01:23:56;;;;;;;3.92;2.00;;;;;;;0.75;63.49;99912.59;683197;28;23453;-62
2021/01/29 01:24:18;;;;;;;2.20;2.00;;;;;;;0.75;63.30;99915.25;679992;29;44752;-61
2021/01/29 01:24:40;;;;;;;3.13;2.25;;;;;;;0.73;63.36;99917.22;680888;29;23441;-62
2021/01/29 01:25:03;;;;;;;2.85;2.38;;;;;;;0.74;63.43;99913.59;680241;28;69154;-62
2021/01/29 01:25:27;;;;;;;2.90;2.10;;;;;;;0.73;63.37;99913.72;679195;28;92298;-61
2021/01/29 01:25:49;;;;;;;3.58;2.45;;;;;;;0.75;63.46;99923.22;677943;29;67292;-62
2021/01/29 01:26:26;;;;;;;2.40;2.20;;;;;;;0.75;63.49;99909.94;680180;28;138130;-62
2021/01/29 01:27:14;;;;;;;3.38;2.22;;;;;;;0.75;63.31;99912.59;683150;28;137442;-62
2021/01/29 01:27:55;;;;;;;2.40;2.10;;;;;;;0.77;63.37;99915.13;687604;28;138521;-62
2021/01/29 01:28:29;;;;;;;2.28;2.10;;;;;;;0.77;63.51;99912.47;686028;28;137749;-60
2021/01/29 01:28:58;;;;;;;2.72;2.33;;;;;;;0.77;63.42;99913.31;686228;28;138572;-62
2021/01/29 01:29:20;;;;;;;2.90;2.53;;;;;;;0.78;63.42;99908.84;688180;28;46400;-62
2021/01/29 01:29:42;;;;;;;2.35;2.15;;;;;;;0.78;63.32;99914.97;686161;28;22019;-61
2021/01/29 01:30:04;;;;;;;2.63;2.30;;;;;;;0.77;63.52;99912.47;685658;28;46050;-60
2021/01/29 01:30:29;;;;;;;3.50;2.25;;;;;;;0.76;63.05;99906.31;684731;28;51351;-62
2021/01/29 01:30:50;;;;;;;2.70;1.98;;;;;;;0.78;63.19;99912.31;682630;28;115232;-61
2021/01/29 01:31:16;;;;;;;3.80;2.25;;;;;;;0.78;63.34;99914.16;684173;28;92261;-62
2021/01/29 01:31:46;;;;;;;3.67;2.50;;;;;;;0.80;63.09;99912.19;682192;28;144088;-60
2021/01/29 01:32:30;;;;;;;3.25;2.40;;;;;;;0.79;63.27;99913.19;685389;28;136001;-61
2021/01/29 01:33:10;;;;;;;2.50;2.30;;;;;;;0.79;63.23;99907.88;685715;28;130733;-61
2021/01/29 01:34:03;;;;;;;3.47;2.30;;;;;;;0.79;63.27;99913.19;679800;28;140603;-61
2021/01/29 01:34:44;;;;;;;2.60;2.40;;;;;;;0.77;63.32;99913.31;682301;28;155608;-62
2021/01/29 01:35:13;;;;;;;3.53;2.67;;;;;;;0.79;63.41;99913.19;681828;28;160785;-60
2021/01/29 01:35:34;;;;;;;4.15;2.67;;;;;;;0.78;63.33;99912.31;683098;28;46601;-61
2021/01/29 01:35:55;;;;;;;3.10;2.60;;;;;;;0.79;63.49;99919.34;684005;28;22487;-61
2021/01/29 01:36:27;;;;;;;2.58;2.35;;;;;;;0.79;63.38;99923.81;679407;28;150783;-62
2021/01/29 01:37:06;;;;;;;2.75;2.47;;;;;;;0.76;63.44;99905.47;680170;28;137308;-62
2021/01/29 01:37:58;;;;;;;3.97;2.15;;;;;;;0.80;63.30;99914.84;677166;29;137677;-62
2021/01/29 01:38:48;;;;;;;4.15;2.78;;;;;;;0.78;63.31;99914.97;678588;28;62384;-62
2021/01/29 01:39:09;;;;;;;3.90;2.50;;;;;;;0.79;63.32;99922.00;682075;28;69496;-60
2021/01/29 01:39:31;;;;;;;2.83;2.30;;;;;;;0.79;63.42;99911.38;680921;29;21513;-62
2021/01/29 01:39:52;;;;;;;3.30;2.40;;;;;;;0.80;63.40;99918.38;682398;28;35856;-62
2021/01/29 01:40:15;;;;;;;2.60;2.40;;;;;;;0.79;63.29;99918.50;684004;28;23443;-62
2021/01/29 01:40:38;;;;;;;2.75;2.40;;;;;;;0.78;63.32;99916.81;682331;28;69166;-61
2021/01/29 01:41:04;;;;;;;4.65;2.10;;;;;;;0.77;63.25;99915.97;679353;28;137509;-61
2021/01/29 01:41:35;;;;;;;4.20;2.28;;;;;;;0.78;63.45;99919.47;679877;28;136074;-61
2021/01/29 01:41:57;;;;;;;2.50;2.30;;;;;;;0.77;63.43;99918.63;683369;28;14827;-62
2021/01/29 01:42:18;;;;;;;3.45;2.50;;;;;;;0.78;63.47;99914.16;684948;28;35040;-62
2021/01/29 01:42:40;;;;;;;2.88;2.35;;;;;;;0.78;63.36;99922.13;682411;28;21539;-61
2021/01/29 01:43:02;;;;;;;4.55;2.42;;;;;;;0.79;63.30;99922.00;684022;28;46295;-62
2021/01/29 01:43:28;;;;;;;2.38;2.20;;;;;;;0.77;63.32;99910.66;682387;28;138183;-61
2021/01/29 01:44:33;;;;;;;4.47;2.33;;;;;;;0.76;63.31;99916.13;681638;28;136527;-61
2021/01/29 01:45:02;;;;;;;2.40;2.30;;;;;;;0.78;63.34;99920.31;683457;28;137628;-62
2021/01/29 01:45:54;;;;;;;3.42;2.20;;;;;;;0.79;63.44;99918.50;683600;28;138031;-60
2021/01/29 01:46:18;;;;;;;2.70;2.50;;;;;;;0.79;63.31;99918.50;684176;28;137325;-62
2021/01/29 01:47:00;;;;;;;2.00;1.90;;;;;;;0.78;63.21;99917.66;686539;28;137659;-62
2021/01/29 01:47:39;;;;;;;3.45;2.10;;;;;;;0.77;63.23;99918.63;684820;28;160612;-58
2021/01/29 01:48:38;;;;;;;2.20;2.00;;;;;;;0.77;63.16;99915.13;685433;28;137687;-60
2021/01/29 01:49:19;;;;;;;3.45;2.20;;;;;;;0.76;63.24;99916.13;685498;28;137512;-60
2021/01/29 01:50:00;;;;;;;2.17;2.00;;;;;;;0.76;63.33;99922.25;684948;28;130369;-59
2021/01/29 01:50:32;;;;;;;3.47;2.10;;;;;;;0.76;63.21;99916.94;682526;28;137333;-61
2021/01/29 01:50:54;;;;;;;3.15;2.10;;;;;;;0.77;63.26;99917.78;683598;28;92270;-61
2021/01/29 01:51:24;;;;;;;3.88;2.20;;;;;;;0.76;63.16;99911.63;683204;28;57727;-62
2021/01/29 01:51:51;;;;;;;3.95;2.22;;;;;;;0.77;63.34;99915.13;677832;28;138710;-61
2021/01/29 01:52:16;;;;;;;2.50;2.30;;;;;;;0.76;63.50;99916.94;676736;29;136475;-60
2021/01/29 01:53:12;;;;;;;2.55;2.20;;;;;;;0.78;63.46;99911.50;670258;29;137358;-61
2021/01/29 01:53:50;;;;;;;3.45;2.20;;;;;;;0.76;63.28;99910.81;674389;29;137482;-61
2021/01/29 01:54:26;;;;;;;2.60;2.08;;;;;;;0.77;63.32;99913.31;673680;29;137727;-62
2021/01/29 01:54:51;;;;;;;2.45;2.25;;;;;;;0.78;63.39;99906.19;674054;29;161305;-60
2021/01/29 01:55:15;;;;;;;2.47;2.28;;;;;;;0.76;63.31;99908.97;683739;28;110486;-60
2021/01/29 01:55:42;;;;;;;2.35;2.20;;;;;;;0.75;63.10;99907.28;683397;28;138879;-61
2021/01/29 01:56:21;;;;;;;3.50;2.30;;;;;;;0.71;63.14;99901.41;687874;28;61694;-60
2021/01/29 01:57:11;;;;;;;2.35;2.05;;;;;;;0.73;63.41;99903.09;688849;28;61460;-59
2021/01/29 01:57:53;;;;;;;2.00;1.90;;;;;;;0.71;63.41;99898.75;687287;28;138450;-60
2021/01/29 01:58:24;;;;;;;4.53;2.70;;;;;;;0.70;63.52;99899.72;684043;28;135961;-58
2021/01/29 01:59:07;;;;;;;2.40;2.20;;;;;;;0.69;63.49;99905.16;684625;28;137756;-60
2021/01/29 01:59:58;;;;;;;2.90;2.25;;;;;;;0.69;63.67;99899.84;680999;28;135993;-61
2021/01/29 02:00:39;;;;;;;4.03;2.20;;;;;;;0.71;63.60;99908.53;685915;28;137559;-61
2021/01/29 02:01:15;;;;;;;2.40;2.15;;;;;;;0.71;63.49;99904.06;682764;28;138414;-60
2021/01/29 02:01:55;;;;;;;3.13;2.25;;;;;;;0.70;63.40;99907.69;684958;28;157376;-57
2021/01/29 02:02:37;;;;;;;2.42;2.03;;;;;;;0.70;63.44;99902.38;685876;28;137675;-60
2021/01/29 02:03:19;;;;;;;2.25;2.08;;;;;;;0.70;63.58;99906.84;686207;28;137616;-60
2021/01/29 02:03:54;;;;;;;3.45;2.20;;;;;;;0.69;63.63;99908.69;686271;28;136653;-62
2021/01/29 02:04:46;;;;;;;3.25;2.13;;;;;;;0.66;63.64;99900.97;678322;28;160371;-60
2021/01/29 02:05:39;;;;;;;2.95;2.20;;;;;;;0.66;63.67;99906.28;677973;29;84847;-57
2021/01/29 02:06:25;;;;;;;3.17;2.20;;;;;;;0.63;63.64;99897.75;676529;29;137756;-62
2021/01/29 02:07:23;;;;;;;2.25;2.15;;;;;;;0.64;63.58;99899.41;686014;28;127276;-61
2021/01/29 02:08:05;;;;;;;2.95;2.25;;;;;;;0.65;64.23;99907.25;688460;28;135983;-59
2021/01/29 02:08:55;;;;;;;3.63;2.05;;;;;;;0.65;63.73;99906.41;680529;28;160842;-57
2021/01/29 02:09:49;;;;;;;2.20;2.10;;;;;;;0.65;63.79;99903.75;682073;28;160856;-57